sensor_id;sensor_type;location;lat;lon;timestamp;pressure;altitude;pressure_sealevel;temperature;humidity
35716;BME280;21840;44.920;8.616;2023-02-18T00:01:55;101733.25;;;11.92;46.62
35716;BME280;21840;44.920;8.616;2023-02-18T00:04:20;101729.75;;;11.41;47.12
35716;BME280;21840;44.920;8.616;2023-02-18T00:06:46;101729.50;;;11.57;46.35
35716;BME280;21840;44.920;8.616;2023-02-18T00:09:12;101743.97;;;12.01;45.84
35716;BME280;21840;44.920;8.616;2023-02-18T00:11:37;101734.41;;;11.87;47.26
35716;BME280;21840;44.920;8.616;2023-02-18T00:14:06;101728.41;;;12.22;46.98
35716;BME280;21840;44.920;8.616;2023-02-18T00:16:32;101719.56;;;12.23;47.81
35716;BME280;21840;44.920;8.616;2023-02-18T00:19:01;101713.34;;;12.24;47.97
35716;BME280;21840;44.920;8.616;2023-02-18T00:21:28;101708.22;;;12.58;46.88
35716;BME280;21840;44.920;8.616;2023-02-18T00:23:54;101713.44;;;11.99;46.95
35716;BME280;21840;44.920;8.616;2023-02-18T00:26:19;101709.78;;;11.89;46.35
35716;BME280;21840;44.920;8.616;2023-02-18T00:28:46;101696.41;;;11.92;46.26
35716;BME280;21840;44.920;8.616;2023-02-18T00:31:18;101699.66;;;11.82;46.36
35716;BME280;21840;44.920;8.616;2023-02-18T00:33:44;101704.53;;;11.89;46.28
35716;BME280;21840;44.920;8.616;2023-02-18T00:36:12;101695.22;;;11.83;46.55
35716;BME280;21840;44.920;8.616;2023-02-18T00:38:38;101696.47;;;11.66;47.41
35716;BME280;21840;44.920;8.616;2023-02-18T00:41:04;101695.34;;;11.81;47.00
35716;BME280;21840;44.920;8.616;2023-02-18T00:43:29;101694.84;;;11.76;48.48
35716;BME280;21840;44.920;8.616;2023-02-18T00:45:55;101689.25;;;11.94;48.05
35716;BME280;21840;44.920;8.616;2023-02-18T00:48:20;101690.94;;;11.82;48.09
35716;BME280;21840;44.920;8.616;2023-02-18T00:50:46;101695.97;;;11.85;47.74
35716;BME280;21840;44.920;8.616;2023-02-18T00:53:12;101705.75;;;11.83;47.20
35716;BME280;21840;44.920;8.616;2023-02-18T00:55:39;101703.75;;;11.50;47.25
35716;BME280;21840;44.920;8.616;2023-02-18T00:58:05;101704.56;;;11.50;47.33
35716;BME280;21840;44.920;8.616;2023-02-18T01:00:30;101690.41;;;11.27;47.61
35716;BME280;21840;44.920;8.616;2023-02-18T01:02:55;101700.94;;;10.76;48.34
35716;BME280;21840;44.920;8.616;2023-02-18T01:05:21;101695.16;;;11.22;47.06
35716;BME280;21840;44.920;8.616;2023-02-18T01:07:46;101689.69;;;11.12;47.89
35716;BME280;21840;44.920;8.616;2023-02-18T01:10:12;101682.28;;;11.43;46.62
35716;BME280;21840;44.920;8.616;2023-02-18T01:12:38;101669.94;;;10.94;49.19
35716;BME280;21840;44.920;8.616;2023-02-18T01:15:04;101670.69;;;11.45;47.11
35716;BME280;21840;44.920;8.616;2023-02-18T01:17:31;101667.91;;;11.10;47.45
35716;BME280;21840;44.920;8.616;2023-02-18T01:19:57;101670.22;;;10.64;48.05
35716;BME280;21840;44.920;8.616;2023-02-18T01:22:22;101670.88;;;11.18;47.10
35716;BME280;21840;44.920;8.616;2023-02-18T01:24:48;101669.06;;;11.19;47.55
35716;BME280;21840;44.920;8.616;2023-02-18T01:27:14;101665.38;;;11.21;47.30
35716;BME280;21840;44.920;8.616;2023-02-18T01:29:41;101659.72;;;11.02;47.36
35716;BME280;21840;44.920;8.616;2023-02-18T01:32:07;101672.81;;;10.51;48.47
35716;BME280;21840;44.920;8.616;2023-02-18T01:34:32;101666.56;;;11.05;47.36
35716;BME280;21840;44.920;8.616;2023-02-18T01:36:58;101675.59;;;10.35;48.79
35716;BME280;21840;44.920;8.616;2023-02-18T01:39:23;101669.81;;;10.30;48.89
35716;BME280;21840;44.920;8.616;2023-02-18T01:41:49;101666.13;;;10.05;49.26
35716;BME280;21840;44.920;8.616;2023-02-18T01:44:18;101657.63;;;9.75;50.22
35716;BME280;21840;44.920;8.616;2023-02-18T01:46:44;101654.41;;;9.84;50.05
35716;BME280;21840;44.920;8.616;2023-02-18T01:49:13;101648.41;;;9.82;50.46
35716;BME280;21840;44.920;8.616;2023-02-18T01:51:46;101656.84;;;10.54;49.12
35716;BME280;21840;44.920;8.616;2023-02-18T01:59:45;101640.56;;;10.36;48.09
35716;BME280;21840;44.920;8.616;2023-02-18T02:02:17;101635.91;;;10.40;51.79
35716;BME280;21840;44.920;8.616;2023-02-18T02:04:44;101628.06;;;10.65;49.88
35716;BME280;21840;44.920;8.616;2023-02-18T02:07:10;101624.00;;;10.74;48.18
35716;BME280;21840;44.920;8.616;2023-02-18T02:09:36;101622.94;;;10.64;48.33
35716;BME280;21840;44.920;8.616;2023-02-18T02:36:28;101641.47;;;9.39;48.76
35716;BME280;21840;44.920;8.616;2023-02-18T02:39:30;101635.72;;;8.91;49.88
35716;BME280;21840;44.920;8.616;2023-02-18T02:42:08;101630.75;;;8.87;50.04
35716;BME280;21840;44.920;8.616;2023-02-18T02:44:42;101628.66;;;9.35;48.89
35716;BME280;21840;44.920;8.616;2023-02-18T02:47:16;101619.28;;;9.45;48.30
35716;BME280;21840;44.920;8.616;2023-02-18T02:52:31;101610.31;;;9.35;49.09
35716;BME280;21840;44.920;8.616;2023-02-18T02:54:58;101609.00;;;8.70;52.14
35716;BME280;21840;44.920;8.616;2023-02-18T03:00:10;101608.44;;;8.05;54.75
35716;BME280;21840;44.920;8.616;2023-02-18T03:06:22;101611.91;;;8.35;54.88
35716;BME280;21840;44.920;8.616;2023-02-18T03:11:34;101612.09;;;8.32;55.33
35716;BME280;21840;44.920;8.616;2023-02-18T03:14:24;101611.75;;;9.12;52.52
35716;BME280;21840;44.920;8.616;2023-02-18T03:17:02;101610.91;;;8.82;51.52
35716;BME280;21840;44.920;8.616;2023-02-18T03:19:39;101614.72;;;8.77;51.35
35716;BME280;21840;44.920;8.616;2023-02-18T03:22:12;101609.22;;;8.81;51.42
35716;BME280;21840;44.920;8.616;2023-02-18T03:24:44;101614.09;;;9.16;50.36
35716;BME280;21840;44.920;8.616;2023-02-18T03:27:32;101609.19;;;9.24;50.08
35716;BME280;21840;44.920;8.616;2023-02-18T03:30:45;101609.56;;;8.47;51.76
35716;BME280;21840;44.920;8.616;2023-02-18T03:32:54;101599.84;;;8.63;52.85
35716;BME280;21840;44.920;8.616;2023-02-18T03:35:22;101599.09;;;8.31;54.83
35716;BME280;21840;44.920;8.616;2023-02-18T03:38:00;101591.97;;;8.49;55.13
35716;BME280;21840;44.920;8.616;2023-02-18T03:40:29;101600.13;;;8.73;53.89
35716;BME280;21840;44.920;8.616;2023-02-18T03:42:58;101596.00;;;8.54;53.73
35716;BME280;21840;44.920;8.616;2023-02-18T03:45:25;101594.31;;;9.11;52.34
35716;BME280;21840;44.920;8.616;2023-02-18T03:47:50;101602.72;;;9.44;50.91
35716;BME280;21840;44.920;8.616;2023-02-18T03:50:16;101601.81;;;9.58;50.01
35716;BME280;21840;44.920;8.616;2023-02-18T03:52:41;101602.44;;;9.35;50.10
35716;BME280;21840;44.920;8.616;2023-02-18T03:55:07;101603.97;;;8.81;51.53
35716;BME280;21840;44.920;8.616;2023-02-18T03:57:33;101597.13;;;8.64;52.08
35716;BME280;21840;44.920;8.616;2023-02-18T03:59:59;101606.03;;;8.76;52.12
35716;BME280;21840;44.920;8.616;2023-02-18T04:02:25;101605.38;;;8.87;51.42
35716;BME280;21840;44.920;8.616;2023-02-18T04:04:50;101601.69;;;8.16;52.97
35716;BME280;21840;44.920;8.616;2023-02-18T04:07:16;101602.13;;;8.09;53.19
35716;BME280;21840;44.920;8.616;2023-02-18T04:09:41;101596.97;;;8.37;51.89
35716;BME280;21840;44.920;8.616;2023-02-18T04:12:07;101608.78;;;8.45;51.24
35716;BME280;21840;44.920;8.616;2023-02-18T04:14:32;101610.00;;;8.53;51.14
35716;BME280;21840;44.920;8.616;2023-02-18T04:16:57;101611.53;;;8.86;49.99
35716;BME280;21840;44.920;8.616;2023-02-18T04:19:23;101609.09;;;8.83;50.11
35716;BME280;21840;44.920;8.616;2023-02-18T04:21:48;101609.03;;;8.99;49.76
35716;BME280;21840;44.920;8.616;2023-02-18T04:24:14;101608.53;;;8.33;51.08
35716;BME280;21840;44.920;8.616;2023-02-18T04:26:39;101604.81;;;8.07;51.80
35716;BME280;21840;44.920;8.616;2023-02-18T04:29:05;101615.81;;;8.58;50.79
35716;BME280;21840;44.920;8.616;2023-02-18T04:31:30;101630.34;;;8.18;51.40
35716;BME280;21840;44.920;8.616;2023-02-18T04:33:56;101620.94;;;8.46;51.09
35716;BME280;21840;44.920;8.616;2023-02-18T04:36:22;101621.34;;;8.38;50.58
35716;BME280;21840;44.920;8.616;2023-02-18T04:38:47;101624.75;;;8.40;50.56
35716;BME280;21840;44.920;8.616;2023-02-18T04:41:13;101629.31;;;8.36;50.45
35716;BME280;21840;44.920;8.616;2023-02-18T04:43:38;101637.22;;;8.05;50.96
35716;BME280;21840;44.920;8.616;2023-02-18T04:46:03;101628.44;;;8.66;50.01
35716;BME280;21840;44.920;8.616;2023-02-18T04:48:29;101622.78;;;8.74;49.65
35716;BME280;21840;44.920;8.616;2023-02-18T04:50:55;101624.91;;;7.91;51.01
35716;BME280;21840;44.920;8.616;2023-02-18T04:53:21;101628.63;;;8.49;50.19
35716;BME280;21840;44.920;8.616;2023-02-18T04:55:50;101627.53;;;8.67;50.09
35716;BME280;21840;44.920;8.616;2023-02-18T04:58:17;101628.06;;;8.58;50.35
35716;BME280;21840;44.920;8.616;2023-02-18T05:00:42;101630.00;;;8.40;50.95
35716;BME280;21840;44.920;8.616;2023-02-18T05:03:08;101622.91;;;8.42;51.38
35716;BME280;21840;44.920;8.616;2023-02-18T05:05:33;101615.53;;;8.49;51.22
35716;BME280;21840;44.920;8.616;2023-02-18T05:08:00;101624.16;;;8.05;51.51
35716;BME280;21840;44.920;8.616;2023-02-18T05:10:25;101625.50;;;8.26;51.71
35716;BME280;21840;44.920;8.616;2023-02-18T05:12:51;101627.41;;;8.24;51.62
35716;BME280;21840;44.920;8.616;2023-02-18T05:15:16;101630.91;;;8.09;51.58
35716;BME280;21840;44.920;8.616;2023-02-18T05:17:42;101634.09;;;7.98;51.31
35716;BME280;21840;44.920;8.616;2023-02-18T05:20:08;101635.59;;;8.18;50.94
35716;BME280;21840;44.920;8.616;2023-02-18T05:22:33;101632.53;;;8.41;50.44
35716;BME280;21840;44.920;8.616;2023-02-18T05:24:59;101625.66;;;8.69;50.17
35716;BME280;21840;44.920;8.616;2023-02-18T05:27:24;101636.72;;;8.74;49.78
35716;BME280;21840;44.920;8.616;2023-02-18T05:29:50;101642.13;;;8.85;49.77
35716;BME280;21840;44.920;8.616;2023-02-18T05:32:15;101641.09;;;8.59;50.89
35716;BME280;21840;44.920;8.616;2023-02-18T05:34:41;101637.47;;;8.46;51.65
35716;BME280;21840;44.920;8.616;2023-02-18T05:37:06;101642.00;;;8.58;50.77
35716;BME280;21840;44.920;8.616;2023-02-18T05:39:33;101648.75;;;8.62;51.13
35716;BME280;21840;44.920;8.616;2023-02-18T05:41:58;101637.91;;;8.83;50.55
35716;BME280;21840;44.920;8.616;2023-02-18T05:44:24;101639.06;;;8.93;50.29
35716;BME280;21840;44.920;8.616;2023-02-18T05:47:04;101639.34;;;9.03;49.62
35716;BME280;21840;44.920;8.616;2023-02-18T05:49:31;101638.13;;;8.94;49.68
35716;BME280;21840;44.920;8.616;2023-02-18T05:51:57;101643.06;;;8.70;50.05
35716;BME280;21840;44.920;8.616;2023-02-18T05:54:24;101641.50;;;8.96;49.74
35716;BME280;21840;44.920;8.616;2023-02-18T05:56:49;101642.53;;;8.19;51.04
35716;BME280;21840;44.920;8.616;2023-02-18T05:59:15;101641.63;;;8.34;50.63
35716;BME280;21840;44.920;8.616;2023-02-18T06:01:41;101638.53;;;8.58;50.39
35716;BME280;21840;44.920;8.616;2023-02-18T06:04:07;101650.25;;;8.36;50.68
35716;BME280;21840;44.920;8.616;2023-02-18T06:06:32;101649.47;;;8.50;50.62
35716;BME280;21840;44.920;8.616;2023-02-18T06:08:58;101652.19;;;8.33;50.72
35716;BME280;21840;44.920;8.616;2023-02-18T06:11:23;101650.31;;;8.51;50.20
35716;BME280;21840;44.920;8.616;2023-02-18T06:13:49;101653.53;;;8.70;49.64
35716;BME280;21840;44.920;8.616;2023-02-18T06:16:14;101651.78;;;8.40;50.49
35716;BME280;21840;44.920;8.616;2023-02-18T06:18:40;101651.59;;;8.43;50.64
35716;BME280;21840;44.920;8.616;2023-02-18T06:21:05;101657.00;;;8.40;50.77
35716;BME280;21840;44.920;8.616;2023-02-18T06:23:31;101658.00;;;8.54;50.30
35716;BME280;21840;44.920;8.616;2023-02-18T06:25:56;101665.97;;;8.20;50.47
35716;BME280;21840;44.920;8.616;2023-02-18T06:28:22;101663.53;;;8.17;51.07
35716;BME280;21840;44.920;8.616;2023-02-18T06:30:48;101668.44;;;8.08;51.23
35716;BME280;21840;44.920;8.616;2023-02-18T06:33:14;101667.56;;;8.23;51.01
35716;BME280;21840;44.920;8.616;2023-02-18T06:35:39;101672.00;;;8.53;50.04
35716;BME280;21840;44.920;8.616;2023-02-18T06:38:05;101668.06;;;8.46;50.10
35716;BME280;21840;44.920;8.616;2023-02-18T06:40:30;101663.50;;;8.33;50.42
35716;BME280;21840;44.920;8.616;2023-02-18T06:42:56;101670.25;;;8.37;50.60
35716;BME280;21840;44.920;8.616;2023-02-18T06:45:21;101661.09;;;8.14;50.89
35716;BME280;21840;44.920;8.616;2023-02-18T06:47:47;101671.22;;;8.67;49.62
35716;BME280;21840;44.920;8.616;2023-02-18T06:50:13;101657.94;;;8.70;49.26
35716;BME280;21840;44.920;8.616;2023-02-18T06:52:38;101668.25;;;8.87;48.77
35716;BME280;21840;44.920;8.616;2023-02-18T06:55:05;101662.41;;;8.68;49.46
35716;BME280;21840;44.920;8.616;2023-02-18T06:57:30;101673.81;;;8.36;49.81
35716;BME280;21840;44.920;8.616;2023-02-18T06:59:55;101667.75;;;8.80;49.44
35716;BME280;21840;44.920;8.616;2023-02-18T07:02:21;101673.69;;;8.38;49.74
35716;BME280;21840;44.920;8.616;2023-02-18T07:04:46;101681.03;;;8.77;48.97
35716;BME280;21840;44.920;8.616;2023-02-18T07:07:12;101680.88;;;8.95;48.58
35716;BME280;21840;44.920;8.616;2023-02-18T07:09:37;101685.13;;;8.67;49.07
35716;BME280;21840;44.920;8.616;2023-02-18T07:12:03;101694.56;;;9.00;48.37
35716;BME280;21840;44.920;8.616;2023-02-18T07:14:28;101700.09;;;8.65;48.78
35716;BME280;21840;44.920;8.616;2023-02-18T07:16:54;101698.22;;;8.67;48.71
35716;BME280;21840;44.920;8.616;2023-02-18T07:19:19;101701.25;;;8.29;49.72
35716;BME280;21840;44.920;8.616;2023-02-18T07:21:44;101699.00;;;8.83;48.81
35716;BME280;21840;44.920;8.616;2023-02-18T07:24:10;101693.72;;;8.99;48.24
35716;BME280;21840;44.920;8.616;2023-02-18T07:26:35;101699.00;;;8.69;48.55
35716;BME280;21840;44.920;8.616;2023-02-18T07:29:01;101700.47;;;9.18;47.83
35716;BME280;21840;44.920;8.616;2023-02-18T07:31:26;101707.47;;;9.60;46.87
35716;BME280;21840;44.920;8.616;2023-02-18T07:33:52;101703.19;;;9.45;47.43
35716;BME280;21840;44.920;8.616;2023-02-18T07:36:17;101701.25;;;9.76;46.24
35716;BME280;21840;44.920;8.616;2023-02-18T07:38:42;101706.16;;;9.53;46.78
35716;BME280;21840;44.920;8.616;2023-02-18T07:41:18;101713.19;;;9.38;46.81
35716;BME280;21840;44.920;8.616;2023-02-18T07:43:44;101706.00;;;9.83;46.54
35716;BME280;21840;44.920;8.616;2023-02-18T07:46:09;101706.69;;;9.87;46.25
35716;BME280;21840;44.920;8.616;2023-02-18T07:48:35;101704.53;;;9.93;45.93
35716;BME280;21840;44.920;8.616;2023-02-18T07:51:07;101706.88;;;9.84;46.54
35716;BME280;21840;44.920;8.616;2023-02-18T07:53:33;101710.91;;;9.75;46.50
35716;BME280;21840;44.920;8.616;2023-02-18T07:55:59;101706.88;;;9.84;46.79
35716;BME280;21840;44.920;8.616;2023-02-18T07:58:27;101709.66;;;10.22;45.75
35716;BME280;21840;44.920;8.616;2023-02-18T08:00:54;101714.34;;;9.90;46.20
35716;BME280;21840;44.920;8.616;2023-02-18T08:03:21;101716.94;;;10.04;46.00
35716;BME280;21840;44.920;8.616;2023-02-18T08:05:48;101712.16;;;10.38;45.75
35716;BME280;21840;44.920;8.616;2023-02-18T08:08:17;101708.75;;;10.63;45.16
35716;BME280;21840;44.920;8.616;2023-02-18T08:10:45;101719.72;;;10.15;45.93
35716;BME280;21840;44.920;8.616;2023-02-18T08:13:10;101702.94;;;10.45;45.75
35716;BME280;21840;44.920;8.616;2023-02-18T08:15:36;101708.09;;;10.47;45.83
35716;BME280;21840;44.920;8.616;2023-02-18T08:18:01;101713.63;;;10.15;46.39
35716;BME280;21840;44.920;8.616;2023-02-18T08:20:29;101718.81;;;10.02;46.95
35716;BME280;21840;44.920;8.616;2023-02-18T08:22:55;101720.63;;;9.87;47.84
35716;BME280;21840;44.920;8.616;2023-02-18T08:25:20;101725.34;;;10.51;46.83
35716;BME280;21840;44.920;8.616;2023-02-18T08:27:47;101713.34;;;11.12;45.85
35716;BME280;21840;44.920;8.616;2023-02-18T08:30:13;101715.75;;;10.90;46.14
35716;BME280;21840;44.920;8.616;2023-02-18T08:32:38;101714.59;;;11.32;45.45
35716;BME280;21840;44.920;8.616;2023-02-18T08:35:04;101706.81;;;11.43;44.96
35716;BME280;21840;44.920;8.616;2023-02-18T08:37:32;101713.03;;;11.79;44.61
35716;BME280;21840;44.920;8.616;2023-02-18T08:39:57;101700.16;;;11.63;44.55
35716;BME280;21840;44.920;8.616;2023-02-18T08:42:23;101707.19;;;11.63;44.20
35716;BME280;21840;44.920;8.616;2023-02-18T08:44:49;101710.44;;;11.66;45.05
35716;BME280;21840;44.920;8.616;2023-02-18T08:47:14;101716.50;;;11.80;44.94
35716;BME280;21840;44.920;8.616;2023-02-18T08:49:40;101713.09;;;12.27;43.75
35716;BME280;21840;44.920;8.616;2023-02-18T08:52:05;101703.03;;;12.21;44.03
35716;BME280;21840;44.920;8.616;2023-02-18T08:54:31;101713.16;;;11.91;44.38
35716;BME280;21840;44.920;8.616;2023-02-18T08:56:56;101705.16;;;12.16;44.58
35716;BME280;21840;44.920;8.616;2023-02-18T08:59:23;101710.09;;;12.21;44.10
35716;BME280;21840;44.920;8.616;2023-02-18T09:01:49;101702.63;;;12.74;43.13
35716;BME280;21840;44.920;8.616;2023-02-18T09:04:14;101697.69;;;12.58;43.50
35716;BME280;21840;44.920;8.616;2023-02-18T09:06:40;101704.91;;;12.79;43.22
35716;BME280;21840;44.920;8.616;2023-02-18T09:09:06;101701.16;;;12.70;43.29
35716;BME280;21840;44.920;8.616;2023-02-18T09:11:31;101691.63;;;13.03;43.42
35716;BME280;21840;44.920;8.616;2023-02-18T09:13:57;101694.22;;;13.38;42.25
35716;BME280;21840;44.920;8.616;2023-02-18T09:16:23;101687.59;;;13.66;41.88
35716;BME280;21840;44.920;8.616;2023-02-18T09:18:48;101688.94;;;13.61;42.21
35716;BME280;21840;44.920;8.616;2023-02-18T09:21:15;101684.97;;;13.66;42.40
35716;BME280;21840;44.920;8.616;2023-02-18T09:23:41;101689.00;;;13.70;42.22
35716;BME280;21840;44.920;8.616;2023-02-18T09:26:09;101686.06;;;13.41;43.30
35716;BME280;21840;44.920;8.616;2023-02-18T09:28:35;101681.75;;;14.06;42.44
35716;BME280;21840;44.920;8.616;2023-02-18T09:31:10;101681.13;;;14.35;42.20
35716;BME280;21840;44.920;8.616;2023-02-18T09:33:38;101677.22;;;14.50;41.89
35716;BME280;21840;44.920;8.616;2023-02-18T09:36:05;101675.47;;;14.72;42.24
35716;BME280;21840;44.920;8.616;2023-02-18T09:38:30;101669.81;;;14.55;42.72
35716;BME280;21840;44.920;8.616;2023-02-18T09:40:57;101675.84;;;14.67;42.97
35716;BME280;21840;44.920;8.616;2023-02-18T09:45:53;101679.34;;;15.19;42.27
35716;BME280;21840;44.920;8.616;2023-02-18T09:48:26;101685.78;;;15.26;42.00
35716;BME280;21840;44.920;8.616;2023-02-18T09:50:52;101690.09;;;15.27;42.14
35716;BME280;21840;44.920;8.616;2023-02-18T09:53:18;101682.78;;;15.41;42.15
35716;BME280;21840;44.920;8.616;2023-02-18T09:55:44;101678.63;;;15.48;42.35
35716;BME280;21840;44.920;8.616;2023-02-18T09:58:19;101682.41;;;15.65;42.22
35716;BME280;21840;44.920;8.616;2023-02-18T10:00:49;101678.44;;;15.70;42.06
35716;BME280;21840;44.920;8.616;2023-02-18T10:03:22;101674.31;;;15.57;42.41
35716;BME280;21840;44.920;8.616;2023-02-18T10:06:24;101669.81;;;15.88;41.86
35716;BME280;21840;44.920;8.616;2023-02-18T10:08:53;101666.91;;;16.10;41.36
35716;BME280;21840;44.920;8.616;2023-02-18T10:11:31;101660.47;;;16.32;41.09
35716;BME280;21840;44.920;8.616;2023-02-18T10:13:58;101663.00;;;16.44;41.08
35716;BME280;21840;44.920;8.616;2023-02-18T10:16:25;101652.69;;;16.31;41.34
35716;BME280;21840;44.920;8.616;2023-02-18T10:18:54;101651.97;;;16.38;41.51
35716;BME280;21840;44.920;8.616;2023-02-18T10:21:23;101654.63;;;16.29;41.91
35716;BME280;21840;44.920;8.616;2023-02-18T10:27:07;101654.19;;;16.63;41.57
35716;BME280;21840;44.920;8.616;2023-02-18T10:29:36;101652.50;;;16.42;42.26
35716;BME280;21840;44.920;8.616;2023-02-18T10:32:21;101637.56;;;16.80;42.11
35716;BME280;21840;44.920;8.616;2023-02-18T10:34:52;101632.47;;;16.77;42.55
35716;BME280;21840;44.920;8.616;2023-02-18T10:42:34;101620.03;;;17.24;42.33
35716;BME280;21840;44.920;8.616;2023-02-18T10:50:49;101614.13;;;17.76;41.41
35716;BME280;21840;44.920;8.616;2023-02-18T10:55:55;101600.78;;;18.04;41.28
35716;BME280;21840;44.920;8.616;2023-02-18T10:58:46;101598.81;;;18.06;41.03
35716;BME280;21840;44.920;8.616;2023-02-18T11:01:15;101597.19;;;18.31;40.75
35716;BME280;21840;44.920;8.616;2023-02-18T11:03:43;101595.81;;;18.27;40.69
35716;BME280;21840;44.920;8.616;2023-02-18T11:06:40;101586.69;;;18.29;40.21
35716;BME280;21840;44.920;8.616;2023-02-18T11:09:06;101568.41;;;18.26;40.13
35716;BME280;21840;44.920;8.616;2023-02-18T11:11:43;101564.00;;;18.35;40.15
35716;BME280;21840;44.920;8.616;2023-02-18T11:14:12;101578.34;;;18.24;40.13
35716;BME280;21840;44.920;8.616;2023-02-18T11:16:43;101555.47;;;18.31;40.24
35716;BME280;21840;44.920;8.616;2023-02-18T11:19:31;101574.44;;;18.37;40.07
35716;BME280;21840;44.920;8.616;2023-02-18T11:22:12;101566.78;;;18.86;39.29
35716;BME280;21840;44.920;8.616;2023-02-18T11:24:39;101571.97;;;18.69;39.60
35716;BME280;21840;44.920;8.616;2023-02-18T11:27:23;101557.84;;;18.35;40.21
35716;BME280;21840;44.920;8.616;2023-02-18T11:29:57;101557.31;;;18.57;39.76
35716;BME280;21840;44.920;8.616;2023-02-18T11:32:28;101556.16;;;18.60;39.64
35716;BME280;21840;44.920;8.616;2023-02-18T11:34:55;101534.06;;;18.67;39.66
35716;BME280;21840;44.920;8.616;2023-02-18T11:37:21;101534.44;;;18.72;39.61
35716;BME280;21840;44.920;8.616;2023-02-18T11:39:50;101536.22;;;18.72;39.63
35716;BME280;21840;44.920;8.616;2023-02-18T11:42:20;101524.22;;;18.94;39.32
35716;BME280;21840;44.920;8.616;2023-02-18T11:44:57;101521.56;;;18.94;39.30
35716;BME280;21840;44.920;8.616;2023-02-18T11:47:34;101533.34;;;18.91;39.48
35716;BME280;21840;44.920;8.616;2023-02-18T11:52:40;101512.41;;;18.96;39.02
35716;BME280;21840;44.920;8.616;2023-02-18T11:57:37;101508.78;;;18.98;39.46
35716;BME280;21840;44.920;8.616;2023-02-18T12:00:59;101495.97;;;19.09;39.54
35716;BME280;21840;44.920;8.616;2023-02-18T12:03:02;101481.00;;;19.08;39.19
35716;BME280;21840;44.920;8.616;2023-02-18T12:05:33;101486.00;;;19.11;39.38
35716;BME280;21840;44.920;8.616;2023-02-18T12:08:06;101481.47;;;18.95;39.01
35716;BME280;21840;44.920;8.616;2023-02-18T12:10:47;101479.31;;;18.99;39.19
35716;BME280;21840;44.920;8.616;2023-02-18T12:13:25;101472.34;;;18.98;39.12
35716;BME280;21840;44.920;8.616;2023-02-18T12:27:16;101448.88;;;19.02;38.48
35716;BME280;21840;44.920;8.616;2023-02-18T12:35:49;101440.06;;;19.09;38.11
35716;BME280;21840;44.920;8.616;2023-02-18T12:44:31;101442.78;;;19.42;37.27
35716;BME280;21840;44.920;8.616;2023-02-18T12:47:22;101435.94;;;18.64;38.23
35716;BME280;21840;44.920;8.616;2023-02-18T12:55:46;101428.44;;;19.43;37.59
35716;BME280;21840;44.920;8.616;2023-02-18T13:00:51;101424.47;;;19.47;36.97
35716;BME280;21840;44.920;8.616;2023-02-18T13:09:55;101409.28;;;19.31;37.55
35716;BME280;21840;44.920;8.616;2023-02-18T13:15:04;101387.50;;;19.52;37.22
35716;BME280;21840;44.920;8.616;2023-02-18T13:17:34;101379.81;;;19.16;37.51
35716;BME280;21840;44.920;8.616;2023-02-18T13:20:08;101377.81;;;19.43;36.91
35716;BME280;21840;44.920;8.616;2023-02-18T13:22:38;101379.34;;;19.21;37.49
35716;BME280;21840;44.920;8.616;2023-02-18T13:25:04;101370.19;;;19.24;37.47
35716;BME280;21840;44.920;8.616;2023-02-18T13:35:33;101354.72;;;19.27;36.79
35716;BME280;21840;44.920;8.616;2023-02-18T13:40:34;101354.19;;;19.32;37.16
35716;BME280;21840;44.920;8.616;2023-02-18T13:43:18;101346.19;;;19.32;37.38
35716;BME280;21840;44.920;8.616;2023-02-18T13:46:02;101348.88;;;19.15;37.34
35716;BME280;21840;44.920;8.616;2023-02-18T13:48:28;101342.53;;;19.16;37.37
35716;BME280;21840;44.920;8.616;2023-02-18T13:51:01;101341.41;;;19.27;37.44
35716;BME280;21840;44.920;8.616;2023-02-18T13:53:30;101342.72;;;19.23;37.44
35716;BME280;21840;44.920;8.616;2023-02-18T13:58:48;101338.03;;;19.50;37.13
35716;BME280;21840;44.920;8.616;2023-02-18T14:01:21;101328.88;;;19.44;37.27
35716;BME280;21840;44.920;8.616;2023-02-18T14:03:53;101334.38;;;19.34;37.57
35716;BME280;21840;44.920;8.616;2023-02-18T14:06:20;101328.91;;;19.03;37.88
35716;BME280;21840;44.920;8.616;2023-02-18T14:08:46;101329.06;;;19.02;38.39
35716;BME280;21840;44.920;8.616;2023-02-18T14:14:12;101331.91;;;19.33;37.85
35716;BME280;21840;44.920;8.616;2023-02-18T14:19:39;101335.53;;;19.32;38.18
35716;BME280;21840;44.920;8.616;2023-02-18T14:25:21;101327.22;;;19.43;37.93
35716;BME280;21840;44.920;8.616;2023-02-18T14:27:51;101325.75;;;19.16;38.68
35716;BME280;21840;44.920;8.616;2023-02-18T14:32:46;101322.09;;;18.92;38.99
35716;BME280;21840;44.920;8.616;2023-02-18T14:40:52;101323.94;;;19.25;38.44
35716;BME280;21840;44.920;8.616;2023-02-18T14:51:47;101310.09;;;18.96;38.92
35716;BME280;21840;44.920;8.616;2023-02-18T14:54:17;101314.25;;;18.99;38.93
35716;BME280;21840;44.920;8.616;2023-02-18T14:57:00;101315.94;;;19.08;39.12
35716;BME280;21840;44.920;8.616;2023-02-18T14:59:31;101315.09;;;19.16;38.73
35716;BME280;21840;44.920;8.616;2023-02-18T15:01:59;101318.13;;;19.05;38.89
35716;BME280;21840;44.920;8.616;2023-02-18T15:04:25;101313.28;;;19.00;38.98
35716;BME280;21840;44.920;8.616;2023-02-18T15:07:02;101314.56;;;18.71;39.47
35716;BME280;21840;44.920;8.616;2023-02-18T15:09:29;101309.44;;;18.94;38.97
35716;BME280;21840;44.920;8.616;2023-02-18T15:12:03;101317.75;;;18.91;39.08
35716;BME280;21840;44.920;8.616;2023-02-18T15:14:35;101322.28;;;19.07;38.98
35716;BME280;21840;44.920;8.616;2023-02-18T15:17:03;101311.09;;;18.79;39.30
35716;BME280;21840;44.920;8.616;2023-02-18T15:19:35;101314.94;;;19.09;38.74
35716;BME280;21840;44.920;8.616;2023-02-18T15:22:02;101310.28;;;18.87;39.14
35716;BME280;21840;44.920;8.616;2023-02-18T15:24:37;101320.25;;;18.77;39.37
35716;BME280;21840;44.920;8.616;2023-02-18T15:27:10;101309.28;;;18.80;39.64
35716;BME280;21840;44.920;8.616;2023-02-18T15:29:36;101322.91;;;19.01;38.87